sensor_id;sensor_type;location;lat;lon;timestamp;P1;durP1;ratioP1;P2;durP2;ratioP2
71176;SDS011;58877;51.992;4.504;2023-03-26T00:01:40;8.26;;;5.47;;
71176;SDS011;58877;51.992;4.504;2023-03-26T00:04:10;8.65;;;5.73;;
71176;SDS011;58877;51.992;4.504;2023-03-26T00:06:48;8.43;;;5.71;;
71176;SDS011;58877;51.992;4.504;2023-03-26T00:09:17;7.94;;;5.50;;
71176;SDS011;58877;51.992;4.504;2023-03-26T00:11:48;9.00;;;6.10;;
71176;SDS011;58877;51.992;4.504;2023-03-26T00:14:14;11.16;;;7.38;;
71176;SDS011;58877;51.992;4.504;2023-03-26T00:16:42;8.58;;;5.77;;
71176;SDS011;58877;51.992;4.504;2023-03-26T00:19:08;8.80;;;6.02;;
71176;SDS011;58877;51.992;4.504;2023-03-26T00:21:35;9.33;;;6.39;;
71176;SDS011;58877;51.992;4.504;2023-03-26T00:24:05;11.13;;;7.36;;
71176;SDS011;58877;51.992;4.504;2023-03-26T00:26:35;12.70;;;8.27;;
71176;SDS011;58877;51.992;4.504;2023-03-26T00:29:05;12.21;;;7.95;;
71176;SDS011;58877;51.992;4.504;2023-03-26T00:31:33;12.82;;;8.27;;
71176;SDS011;58877;51.992;4.504;2023-03-26T00:34:05;14.73;;;9.20;;
71176;SDS011;58877;51.992;4.504;2023-03-26T00:36:31;14.95;;;9.23;;
71176;SDS011;58877;51.992;4.504;2023-03-26T00:39:00;14.79;;;9.35;;
71176;SDS011;58877;51.992;4.504;2023-03-26T00:41:30;13.57;;;8.59;;
71176;SDS011;58877;51.992;4.504;2023-03-26T00:44:01;15.63;;;9.86;;
71176;SDS011;58877;51.992;4.504;2023-03-26T00:46:28;13.12;;;8.19;;
71176;SDS011;58877;51.992;4.504;2023-03-26T00:48:55;13.46;;;8.54;;
71176;SDS011;58877;51.992;4.504;2023-03-26T00:51:30;15.69;;;9.74;;
71176;SDS011;58877;51.992;4.504;2023-03-26T00:53:57;16.04;;;9.89;;
71176;SDS011;58877;51.992;4.504;2023-03-26T00:56:26;15.76;;;9.66;;
71176;SDS011;58877;51.992;4.504;2023-03-26T00:58:52;18.49;;;11.11;;
71176;SDS011;58877;51.992;4.504;2023-03-26T01:01:20;18.22;;;11.10;;
71176;SDS011;58877;51.992;4.504;2023-03-26T01:03:52;16.91;;;10.27;;
71176;SDS011;58877;51.992;4.504;2023-03-26T01:06:30;17.23;;;10.40;;
71176;SDS011;58877;51.992;4.504;2023-03-26T01:09:02;17.96;;;10.73;;
71176;SDS011;58877;51.992;4.504;2023-03-26T01:11:36;19.08;;;11.26;;
71176;SDS011;58877;51.992;4.504;2023-03-26T01:14:19;18.62;;;10.91;;
71176;SDS011;58877;51.992;4.504;2023-03-26T01:16:58;18.51;;;11.07;;
71176;SDS011;58877;51.992;4.504;2023-03-26T01:22:24;20.17;;;11.86;;
71176;SDS011;58877;51.992;4.504;2023-03-26T01:24:52;20.06;;;11.89;;
71176;SDS011;58877;51.992;4.504;2023-03-26T01:27:26;20.56;;;12.13;;
71176;SDS011;58877;51.992;4.504;2023-03-26T01:35:42;23.31;;;13.52;;
71176;SDS011;58877;51.992;4.504;2023-03-26T01:40:54;18.27;;;10.84;;
71176;SDS011;58877;51.992;4.504;2023-03-26T01:46:13;20.67;;;11.88;;
71176;SDS011;58877;51.992;4.504;2023-03-26T01:48:45;20.90;;;12.05;;
71176;SDS011;58877;51.992;4.504;2023-03-26T01:51:13;20.31;;;11.63;;
71176;SDS011;58877;51.992;4.504;2023-03-26T01:53:49;19.79;;;11.38;;
71176;SDS011;58877;51.992;4.504;2023-03-26T01:59:27;21.43;;;12.31;;
71176;SDS011;58877;51.992;4.504;2023-03-26T02:02:10;24.94;;;14.28;;
71176;SDS011;58877;51.992;4.504;2023-03-26T02:10:14;20.62;;;11.93;;
71176;SDS011;58877;51.992;4.504;2023-03-26T02:12:52;22.69;;;12.88;;
71176;SDS011;58877;51.992;4.504;2023-03-26T02:15:25;22.43;;;12.87;;
71176;SDS011;58877;51.992;4.504;2023-03-26T02:17:51;23.82;;;13.49;;
71176;SDS011;58877;51.992;4.504;2023-03-26T02:20:17;23.80;;;13.36;;
71176;SDS011;58877;51.992;4.504;2023-03-26T02:22:46;20.89;;;12.11;;
71176;SDS011;58877;51.992;4.504;2023-03-26T02:25:19;21.45;;;12.65;;
71176;SDS011;58877;51.992;4.504;2023-03-26T02:27:46;21.67;;;12.60;;
71176;SDS011;58877;51.992;4.504;2023-03-26T02:30:17;22.92;;;13.34;;
71176;SDS011;58877;51.992;4.504;2023-03-26T02:32:54;24.75;;;14.26;;
71176;SDS011;58877;51.992;4.504;2023-03-26T02:35:23;21.03;;;12.33;;
71176;SDS011;58877;51.992;4.504;2023-03-26T02:37:48;21.30;;;12.49;;
71176;SDS011;58877;51.992;4.504;2023-03-26T02:40:16;20.65;;;12.18;;
71176;SDS011;58877;51.992;4.504;2023-03-26T02:42:43;21.07;;;12.51;;
71176;SDS011;58877;51.992;4.504;2023-03-26T02:45:09;20.18;;;11.99;;
71176;SDS011;58877;51.992;4.504;2023-03-26T02:47:36;20.08;;;11.95;;
71176;SDS011;58877;51.992;4.504;2023-03-26T02:50:02;15.83;;;9.85;;
71176;SDS011;58877;51.992;4.504;2023-03-26T02:52:28;15.47;;;9.72;;
71176;SDS011;58877;51.992;4.504;2023-03-26T02:54:54;16.47;;;10.41;;
71176;SDS011;58877;51.992;4.504;2023-03-26T02:57:23;17.72;;;11.07;;
71176;SDS011;58877;51.992;4.504;2023-03-26T02:59:49;16.43;;;10.15;;
71176;SDS011;58877;51.992;4.504;2023-03-26T03:02:17;18.01;;;11.23;;
71176;SDS011;58877;51.992;4.504;2023-03-26T03:04:46;16.25;;;10.18;;
71176;SDS011;58877;51.992;4.504;2023-03-26T03:07:12;17.43;;;10.74;;
71176;SDS011;58877;51.992;4.504;2023-03-26T03:09:44;17.51;;;10.80;;
71176;SDS011;58877;51.992;4.504;2023-03-26T03:12:22;16.02;;;10.11;;
71176;SDS011;58877;51.992;4.504;2023-03-26T03:14:57;16.38;;;10.20;;
71176;SDS011;58877;51.992;4.504;2023-03-26T03:17:24;14.41;;;9.12;;
71176;SDS011;58877;51.992;4.504;2023-03-26T03:19:49;15.22;;;9.65;;
71176;SDS011;58877;51.992;4.504;2023-03-26T03:22:21;15.54;;;9.54;;
71176;SDS011;58877;51.992;4.504;2023-03-26T03:24:50;16.00;;;9.63;;
71176;SDS011;58877;51.992;4.504;2023-03-26T03:27:39;15.61;;;9.58;;
71176;SDS011;58877;51.992;4.504;2023-03-26T03:30:10;14.45;;;8.67;;
71176;SDS011;58877;51.992;4.504;2023-03-26T03:32:38;16.09;;;9.54;;
71176;SDS011;58877;51.992;4.504;2023-03-26T03:35:04;14.98;;;9.01;;
71176;SDS011;58877;51.992;4.504;2023-03-26T03:37:30;14.46;;;8.78;;
71176;SDS011;58877;51.992;4.504;2023-03-26T03:40:03;15.26;;;9.29;;
71176;SDS011;58877;51.992;4.504;2023-03-26T03:42:32;13.82;;;8.48;;
71176;SDS011;58877;51.992;4.504;2023-03-26T03:45:01;13.15;;;8.24;;
71176;SDS011;58877;51.992;4.504;2023-03-26T03:47:28;14.05;;;8.73;;
71176;SDS011;58877;51.992;4.504;2023-03-26T03:49:54;12.24;;;7.70;;
71176;SDS011;58877;51.992;4.504;2023-03-26T03:52:21;13.20;;;8.30;;
71176;SDS011;58877;51.992;4.504;2023-03-26T03:54:49;13.09;;;8.24;;
71176;SDS011;58877;51.992;4.504;2023-03-26T03:57:16;12.42;;;7.84;;
71176;SDS011;58877;51.992;4.504;2023-03-26T03:59:43;13.33;;;8.18;;
71176;SDS011;58877;51.992;4.504;2023-03-26T04:02:12;13.94;;;8.58;;
71176;SDS011;58877;51.992;4.504;2023-03-26T04:04:38;13.03;;;8.16;;
71176;SDS011;58877;51.992;4.504;2023-03-26T04:07:05;12.34;;;7.96;;
71176;SDS011;58877;51.992;4.504;2023-03-26T04:09:31;10.91;;;7.16;;
71176;SDS011;58877;51.992;4.504;2023-03-26T04:11:56;10.73;;;6.98;;
71176;SDS011;58877;51.992;4.504;2023-03-26T04:14:23;12.57;;;8.02;;
71176;SDS011;58877;51.992;4.504;2023-03-26T04:16:49;11.24;;;7.29;;
71176;SDS011;58877;51.992;4.504;2023-03-26T04:19:17;10.68;;;6.98;;
71176;SDS011;58877;51.992;4.504;2023-03-26T04:21:43;10.79;;;7.07;;
71176;SDS011;58877;51.992;4.504;2023-03-26T04:24:09;11.82;;;7.69;;
71176;SDS011;58877;51.992;4.504;2023-03-26T04:26:38;10.93;;;7.08;;
71176;SDS011;58877;51.992;4.504;2023-03-26T04:29:04;10.01;;;6.57;;
71176;SDS011;58877;51.992;4.504;2023-03-26T04:31:36;11.78;;;7.57;;
71176;SDS011;58877;51.992;4.504;2023-03-26T04:34:05;11.88;;;7.48;;
71176;SDS011;58877;51.992;4.504;2023-03-26T04:36:37;9.88;;;6.38;;
71176;SDS011;58877;51.992;4.504;2023-03-26T04:39:08;9.25;;;6.14;;
71176;SDS011;58877;51.992;4.504;2023-03-26T04:41:37;9.91;;;6.44;;
71176;SDS011;58877;51.992;4.504;2023-03-26T04:44:03;9.85;;;6.40;;
71176;SDS011;58877;51.992;4.504;2023-03-26T04:46:29;10.60;;;6.88;;
71176;SDS011;58877;51.992;4.504;2023-03-26T04:49:01;11.21;;;7.07;;
71176;SDS011;58877;51.992;4.504;2023-03-26T04:51:31;12.59;;;7.89;;
71176;SDS011;58877;51.992;4.504;2023-03-26T04:54:06;11.85;;;7.62;;
71176;SDS011;58877;51.992;4.504;2023-03-26T04:59:19;12.36;;;7.68;;
71176;SDS011;58877;51.992;4.504;2023-03-26T05:01:50;12.91;;;7.96;;
71176;SDS011;58877;51.992;4.504;2023-03-26T05:04:17;13.31;;;8.16;;
71176;SDS011;58877;51.992;4.504;2023-03-26T05:06:42;13.69;;;8.41;;
71176;SDS011;58877;51.992;4.504;2023-03-26T05:09:08;12.54;;;7.88;;
71176;SDS011;58877;51.992;4.504;2023-03-26T05:11:35;11.76;;;7.51;;
71176;SDS011;58877;51.992;4.504;2023-03-26T05:14:01;11.77;;;7.52;;
71176;SDS011;58877;51.992;4.504;2023-03-26T05:16:27;11.19;;;7.15;;
71176;SDS011;58877;51.992;4.504;2023-03-26T05:18:53;11.52;;;7.34;;
71176;SDS011;58877;51.992;4.504;2023-03-26T05:21:19;11.01;;;7.13;;
71176;SDS011;58877;51.992;4.504;2023-03-26T05:23:45;12.49;;;8.03;;
71176;SDS011;58877;51.992;4.504;2023-03-26T05:26:11;12.24;;;7.76;;
71176;SDS011;58877;51.992;4.504;2023-03-26T05:28:36;12.77;;;8.12;;
71176;SDS011;58877;51.992;4.504;2023-03-26T05:31:02;12.64;;;8.17;;
71176;SDS011;58877;51.992;4.504;2023-03-26T05:33:28;11.02;;;7.21;;
71176;SDS011;58877;51.992;4.504;2023-03-26T05:35:57;11.49;;;7.55;;
71176;SDS011;58877;51.992;4.504;2023-03-26T05:38:28;10.94;;;7.27;;
71176;SDS011;58877;51.992;4.504;2023-03-26T05:41:01;11.67;;;7.77;;
71176;SDS011;58877;51.992;4.504;2023-03-26T05:43:28;10.68;;;7.17;;
71176;SDS011;58877;51.992;4.504;2023-03-26T05:45:55;10.18;;;6.94;;
71176;SDS011;58877;51.992;4.504;2023-03-26T05:48:21;11.70;;;8.04;;
71176;SDS011;58877;51.992;4.504;2023-03-26T05:50:47;11.76;;;7.82;;
71176;SDS011;58877;51.992;4.504;2023-03-26T05:53:14;12.54;;;8.29;;
71176;SDS011;58877;51.992;4.504;2023-03-26T05:55:42;11.44;;;7.66;;
71176;SDS011;58877;51.992;4.504;2023-03-26T05:58:10;11.57;;;7.70;;
71176;SDS011;58877;51.992;4.504;2023-03-26T06:00:37;12.71;;;8.44;;
71176;SDS011;58877;51.992;4.504;2023-03-26T06:03:03;10.53;;;7.12;;
71176;SDS011;58877;51.992;4.504;2023-03-26T06:05:33;12.29;;;8.34;;
71176;SDS011;58877;51.992;4.504;2023-03-26T06:08:01;10.88;;;7.60;;
71176;SDS011;58877;51.992;4.504;2023-03-26T06:10:28;10.57;;;7.52;;
71176;SDS011;58877;51.992;4.504;2023-03-26T06:12:54;10.95;;;7.83;;
71176;SDS011;58877;51.992;4.504;2023-03-26T06:15:20;11.81;;;8.40;;
71176;SDS011;58877;51.992;4.504;2023-03-26T06:17:45;10.93;;;7.82;;
71176;SDS011;58877;51.992;4.504;2023-03-26T06:20:11;10.40;;;7.80;;
71176;SDS011;58877;51.992;4.504;2023-03-26T06:22:37;10.11;;;7.75;;
71176;SDS011;58877;51.992;4.504;2023-03-26T06:25:03;11.14;;;8.34;;
71176;SDS011;58877;51.992;4.504;2023-03-26T06:27:29;10.00;;;7.59;;
71176;SDS011;58877;51.992;4.504;2023-03-26T06:29:54;10.62;;;7.95;;
71176;SDS011;58877;51.992;4.504;2023-03-26T06:32:20;11.30;;;8.46;;
71176;SDS011;58877;51.992;4.504;2023-03-26T06:34:45;9.69;;;7.68;;
71176;SDS011;58877;51.992;4.504;2023-03-26T06:37:11;9.15;;;7.31;;
71176;SDS011;58877;51.992;4.504;2023-03-26T06:39:37;10.12;;;7.97;;
71176;SDS011;58877;51.992;4.504;2023-03-26T06:42:02;10.39;;;7.90;;
71176;SDS011;58877;51.992;4.504;2023-03-26T06:44:28;10.70;;;8.11;;
71176;SDS011;58877;51.992;4.504;2023-03-26T06:46:53;10.66;;;8.11;;
71176;SDS011;58877;51.992;4.504;2023-03-26T06:49:19;11.00;;;8.49;;
71176;SDS011;58877;51.992;4.504;2023-03-26T06:51:45;9.82;;;7.72;;
71176;SDS011;58877;51.992;4.504;2023-03-26T06:54:11;10.15;;;8.08;;
71176;SDS011;58877;51.992;4.504;2023-03-26T06:56:37;9.89;;;7.90;;
71176;SDS011;58877;51.992;4.504;2023-03-26T06:59:02;10.03;;;7.94;;
71176;SDS011;58877;51.992;4.504;2023-03-26T07:01:28;8.58;;;7.11;;
71176;SDS011;58877;51.992;4.504;2023-03-26T07:03:54;9.03;;;7.30;;
71176;SDS011;58877;51.992;4.504;2023-03-26T07:06:20;9.78;;;7.64;;
71176;SDS011;58877;51.992;4.504;2023-03-26T07:08:45;9.47;;;7.48;;
71176;SDS011;58877;51.992;4.504;2023-03-26T07:11:12;8.90;;;7.14;;
71176;SDS011;58877;51.992;4.504;2023-03-26T07:13:38;9.57;;;7.48;;
71176;SDS011;58877;51.992;4.504;2023-03-26T07:16:04;10.15;;;8.54;;
71176;SDS011;58877;51.992;4.504;2023-03-26T07:18:31;11.41;;;10.13;;
71176;SDS011;58877;51.992;4.504;2023-03-26T07:20:56;10.19;;;8.76;;
71176;SDS011;58877;51.992;4.504;2023-03-26T07:23:23;14.06;;;12.78;;
71176;SDS011;58877;51.992;4.504;2023-03-26T07:25:49;10.05;;;9.76;;
71176;SDS011;58877;51.992;4.504;2023-03-26T07:33:56;8.01;;;7.10;;
71176;SDS011;58877;51.992;4.504;2023-03-26T07:47:28;7.70;;;6.86;;
71176;SDS011;58877;51.992;4.504;2023-03-26T07:50:00;6.93;;;6.17;;
71176;SDS011;58877;51.992;4.504;2023-03-26T07:52:27;6.85;;;5.95;;
71176;SDS011;58877;51.992;4.504;2023-03-26T07:54:53;7.90;;;7.30;;
71176;SDS011;58877;51.992;4.504;2023-03-26T07:57:23;6.54;;;6.00;;
71176;SDS011;58877;51.992;4.504;2023-03-26T08:06:26;5.84;;;5.38;;
71176;SDS011;58877;51.992;4.504;2023-03-26T08:27:54;7.29;;;6.65;;
71176;SDS011;58877;51.992;4.504;2023-03-26T08:30:46;7.13;;;6.65;;
71176;SDS011;58877;51.992;4.504;2023-03-26T08:35:41;7.03;;;6.62;;
71176;SDS011;58877;51.992;4.504;2023-03-26T08:38:07;5.98;;;5.63;;
71176;SDS011;58877;51.992;4.504;2023-03-26T08:52:45;6.05;;;5.41;;
71176;SDS011;58877;51.992;4.504;2023-03-26T09:16:43;10.58;;;10.57;;
71176;SDS011;58877;51.992;4.504;2023-03-26T09:41:45;7.27;;;7.27;;
71176;SDS011;58877;51.992;4.504;2023-03-26T09:51:01;15.75;;;15.75;;
71176;SDS011;58877;51.992;4.504;2023-03-26T10:14:17;10.26;;;10.26;;
71176;SDS011;58877;51.992;4.504;2023-03-26T10:17:11;10.20;;;10.20;;
71176;SDS011;58877;51.992;4.504;2023-03-26T10:31:00;9.09;;;9.07;;
71176;SDS011;58877;51.992;4.504;2023-03-26T10:36:38;11.82;;;11.82;;
71176;SDS011;58877;51.992;4.504;2023-03-26T10:39:36;9.79;;;9.76;;
71176;SDS011;58877;51.992;4.504;2023-03-26T10:45:23;8.70;;;8.68;;
71176;SDS011;58877;51.992;4.504;2023-03-26T10:54:41;6.22;;;6.21;;
71176;SDS011;58877;51.992;4.504;2023-03-26T11:00:01;12.75;;;12.46;;
71176;SDS011;58877;51.992;4.504;2023-03-26T11:17:20;9.68;;;9.07;;
71176;SDS011;58877;51.992;4.504;2023-03-26T11:20:15;9.60;;;9.11;;
71176;SDS011;58877;51.992;4.504;2023-03-26T11:23:06;6.23;;;6.00;;
71176;SDS011;58877;51.992;4.504;2023-03-26T11:31:42;4.40;;;3.93;;
71176;SDS011;58877;51.992;4.504;2023-03-26T11:37:47;5.98;;;5.00;;
71176;SDS011;58877;51.992;4.504;2023-03-26T11:40:37;8.24;;;6.73;;
71176;SDS011;58877;51.992;4.504;2023-03-26T11:43:25;7.96;;;6.53;;
71176;SDS011;58877;51.992;4.504;2023-03-26T11:46:31;14.01;;;12.81;;
71176;SDS011;58877;51.992;4.504;2023-03-26T11:52:26;6.20;;;5.67;;
71176;SDS011;58877;51.992;4.504;2023-03-26T11:55:22;8.22;;;7.53;;
71176;SDS011;58877;51.992;4.504;2023-03-26T11:58:03;12.48;;;11.22;;
71176;SDS011;58877;51.992;4.504;2023-03-26T12:00:55;9.84;;;9.23;;
71176;SDS011;58877;51.992;4.504;2023-03-26T12:03:21;13.19;;;12.61;;
71176;SDS011;58877;51.992;4.504;2023-03-26T12:05:56;12.15;;;11.97;;
71176;SDS011;58877;51.992;4.504;2023-03-26T12:08:32;7.29;;;6.82;;
71176;SDS011;58877;51.992;4.504;2023-03-26T12:11:10;10.28;;;9.52;;
71176;SDS011;58877;51.992;4.504;2023-03-26T12:13:59;10.87;;;10.39;;
71176;SDS011;58877;51.992;4.504;2023-03-26T12:16:25;13.00;;;12.26;;
71176;SDS011;58877;51.992;4.504;2023-03-26T12:19:04;8.20;;;7.46;;
71176;SDS011;58877;51.992;4.504;2023-03-26T12:21:44;11.95;;;11.02;;
71176;SDS011;58877;51.992;4.504;2023-03-26T12:24:26;7.22;;;6.60;;
71176;SDS011;58877;51.992;4.504;2023-03-26T12:27:27;7.03;;;6.27;;
71176;SDS011;58877;51.992;4.504;2023-03-26T12:29:58;6.61;;;5.82;;
71176;SDS011;58877;51.992;4.504;2023-03-26T12:33:03;6.98;;;5.66;;
71176;SDS011;58877;51.992;4.504;2023-03-26T12:36:15;7.53;;;6.37;;
71176;SDS011;58877;51.992;4.504;2023-03-26T12:38:59;6.06;;;5.23;;
71176;SDS011;58877;51.992;4.504;2023-03-26T12:41:33;6.33;;;5.62;;
71176;SDS011;58877;51.992;4.504;2023-03-26T12:44:30;4.23;;;3.63;;
71176;SDS011;58877;51.992;4.504;2023-03-26T12:47:24;5.03;;;3.96;;
71176;SDS011;58877;51.992;4.504;2023-03-26T12:49:58;6.90;;;5.67;;
71176;SDS011;58877;51.992;4.504;2023-03-26T12:58:00;5.34;;;4.33;;
71176;SDS011;58877;51.992;4.504;2023-03-26T13:06:28;7.15;;;6.19;;
71176;SDS011;58877;51.992;4.504;2023-03-26T13:09:41;6.63;;;5.83;;
71176;SDS011;58877;51.992;4.504;2023-03-26T13:15:55;4.79;;;4.44;;
71176;SDS011;58877;51.992;4.504;2023-03-26T13:18:33;5.09;;;4.45;;
71176;SDS011;58877;51.992;4.504;2023-03-26T13:21:10;5.17;;;4.35;;
71176;SDS011;58877;51.992;4.504;2023-03-26T13:32:53;3.23;;;2.74;;
71176;SDS011;58877;51.992;4.504;2023-03-26T13:35:30;4.45;;;3.41;;
71176;SDS011;58877;51.992;4.504;2023-03-26T13:38:39;3.83;;;2.82;;
71176;SDS011;58877;51.992;4.504;2023-03-26T13:41:39;4.25;;;3.07;;
71176;SDS011;58877;51.992;4.504;2023-03-26T13:47:27;5.03;;;3.70;;
71176;SDS011;58877;51.992;4.504;2023-03-26T13:55:27;3.58;;;2.64;;
71176;SDS011;58877;51.992;4.504;2023-03-26T13:58:05;4.14;;;3.01;;
71176;SDS011;58877;51.992;4.504;2023-03-26T14:00:45;4.99;;;3.55;;
71176;SDS011;58877;51.992;4.504;2023-03-26T14:03:26;5.20;;;3.73;;
71176;SDS011;58877;51.992;4.504;2023-03-26T14:06:26;4.65;;;3.41;;
71176;SDS011;58877;51.992;4.504;2023-03-26T14:09:01;3.62;;;2.72;;
71176;SDS011;58877;51.992;4.504;2023-03-26T14:14:37;5.14;;;4.03;;
71176;SDS011;58877;51.992;4.504;2023-03-26T14:17:31;3.52;;;2.64;;
71176;SDS011;58877;51.992;4.504;2023-03-26T14:20:25;3.76;;;2.75;;
71176;SDS011;58877;51.992;4.504;2023-03-26T14:23:22;3.80;;;2.67;;
71176;SDS011;58877;51.992;4.504;2023-03-26T14:31:38;3.12;;;2.20;;
71176;SDS011;58877;51.992;4.504;2023-03-26T14:50:07;4.22;;;2.85;;
71176;SDS011;58877;51.992;4.504;2023-03-26T14:53:11;4.72;;;3.26;;
71176;SDS011;58877;51.992;4.504;2023-03-26T14:56:19;4.45;;;3.26;;
71176;SDS011;58877;51.992;4.504;2023-03-26T15:27:02;2.97;;;2.35;;
71176;SDS011;58877;51.992;4.504;2023-03-26T15:30:35;3.09;;;2.33;;
71176;SDS011;58877;51.992;4.504;2023-03-26T15:48:16;4.78;;;3.29;;
71176;SDS011;58877;51.992;4.504;2023-03-26T16:07:10;3.88;;;2.69;;
71176;SDS011;58877;51.992;4.504;2023-03-26T16:12:36;4.54;;;3.15;;
71176;SDS011;58877;51.992;4.504;2023-03-26T16:15:30;4.48;;;3.00;;
71176;SDS011;58877;51.992;4.504;2023-03-26T16:26:16;4.69;;;3.13;;
71176;SDS011;58877;51.992;4.504;2023-03-26T16:33:36;4.00;;;2.64;;
71176;SDS011;58877;51.992;4.504;2023-03-26T16:41:30;3.42;;;2.29;;
71176;SDS011;58877;51.992;4.504;2023-03-26T16:44:02;3.55;;;2.39;;
71176;SDS011;58877;51.992;4.504;2023-03-26T16:49:52;3.19;;;2.20;;
71176;SDS011;58877;51.992;4.504;2023-03-26T16:52:41;3.59;;;2.47;;
71176;SDS011;58877;51.992;4.504;2023-03-26T16:55:38;3.29;;;2.31;;
71176;SDS011;58877;51.992;4.504;2023-03-26T17:01:31;3.39;;;2.31;;
71176;SDS011;58877;51.992;4.504;2023-03-26T17:32:22;2.71;;;2.08;;
71176;SDS011;58877;51.992;4.504;2023-03-26T17:34:54;2.80;;;2.12;;
71176;SDS011;58877;51.992;4.504;2023-03-26T17:37:30;2.53;;;1.90;;
71176;SDS011;58877;51.992;4.504;2023-03-26T17:42:26;3.59;;;2.64;;
71176;SDS011;58877;51.992;4.504;2023-03-26T17:50:31;3.22;;;2.30;;
71176;SDS011;58877;51.992;4.504;2023-03-26T17:53:28;5.13;;;3.77;;
71176;SDS011;58877;51.992;4.504;2023-03-26T17:56:00;3.65;;;2.60;;
71176;SDS011;58877;51.992;4.504;2023-03-26T17:58:32;3.71;;;2.50;;
71176;SDS011;58877;51.992;4.504;2023-03-26T18:01:03;3.88;;;2.54;;
71176;SDS011;58877;51.992;4.504;2023-03-26T18:03:40;3.64;;;2.37;;
71176;SDS011;58877;51.992;4.504;2023-03-26T18:12:01;4.14;;;2.75;;
71176;SDS011;58877;51.992;4.504;2023-03-26T18:14:44;4.16;;;2.77;;
71176;SDS011;58877;51.992;4.504;2023-03-26T18:17:37;6.15;;;4.18;;
71176;SDS011;58877;51.992;4.504;2023-03-26T18:20:06;3.35;;;2.41;;
71176;SDS011;58877;51.992;4.504;2023-03-26T18:22:33;2.94;;;2.12;;
71176;SDS011;58877;51.992;4.504;2023-03-26T18:25:00;3.56;;;2.50;;
71176;SDS011;58877;51.992;4.504;2023-03-26T18:27:36;4.26;;;2.91;;
71176;SDS011;58877;51.992;4.504;2023-03-26T18:30:23;4.70;;;3.15;;
71176;SDS011;58877;51.992;4.504;2023-03-26T18:33:00;3.31;;;2.25;;
71176;SDS011;58877;51.992;4.504;2023-03-26T18:35:41;3.31;;;2.29;;
71176;SDS011;58877;51.992;4.504;2023-03-26T18:38:11;3.33;;;2.32;;
71176;SDS011;58877;51.992;4.504;2023-03-26T18:40:43;3.57;;;2.49;;
71176;SDS011;58877;51.992;4.504;2023-03-26T18:43:19;3.29;;;2.31;;
71176;SDS011;58877;51.992;4.504;2023-03-26T18:45:50;3.78;;;2.60;;
71176;SDS011;58877;51.992;4.504;2023-03-26T18:48:19;2.99;;;2.08;;
71176;SDS011;58877;51.992;4.504;2023-03-26T18:51:00;2.90;;;2.03;;
71176;SDS011;58877;51.992;4.504;2023-03-26T18:53:29;2.44;;;1.68;;
71176;SDS011;58877;51.992;4.504;2023-03-26T18:56:04;3.29;;;2.21;;
71176;SDS011;58877;51.992;4.504;2023-03-26T18:58:55;4.57;;;2.96;;
71176;SDS011;58877;51.992;4.504;2023-03-26T19:01:25;3.90;;;2.52;;
71176;SDS011;58877;51.992;4.504;2023-03-26T19:03:55;4.18;;;2.71;;
71176;SDS011;58877;51.992;4.504;2023-03-26T19:06:28;4.23;;;2.73;;
71176;SDS011;58877;51.992;4.504;2023-03-26T19:09:00;4.75;;;3.05;;
71176;SDS011;58877;51.992;4.504;2023-03-26T19:11:30;5.41;;;3.66;;
71176;SDS011;58877;51.992;4.504;2023-03-26T19:14:16;4.00;;;2.82;;
71176;SDS011;58877;51.992;4.504;2023-03-26T19:16:57;3.37;;;2.42;;
71176;SDS011;58877;51.992;4.504;2023-03-26T19:19:28;3.36;;;2.43;;
71176;SDS011;58877;51.992;4.504;2023-03-26T19:22:01;3.15;;;2.27;;
71176;SDS011;58877;51.992;4.504;2023-03-26T19:24:29;3.86;;;2.73;;
71176;SDS011;58877;51.992;4.504;2023-03-26T19:26:56;3.45;;;2.45;;
71176;SDS011;58877;51.992;4.504;2023-03-26T19:29:30;2.46;;;1.74;;
71176;SDS011;58877;51.992;4.504;2023-03-26T19:32:03;3.31;;;2.28;;
71176;SDS011;58877;51.992;4.504;2023-03-26T19:34:39;3.40;;;2.30;;
71176;SDS011;58877;51.992;4.504;2023-03-26T19:37:47;3.23;;;2.17;;
71176;SDS011;58877;51.992;4.504;2023-03-26T19:40:01;4.04;;;2.66;;
71176;SDS011;58877;51.992;4.504;2023-03-26T19:42:53;4.09;;;2.72;;
71176;SDS011;58877;51.992;4.504;2023-03-26T19:45:19;3.22;;;2.14;;
71176;SDS011;58877;51.992;4.504;2023-03-26T19:47:47;3.78;;;2.46;;
71176;SDS011;58877;51.992;4.504;2023-03-26T19:55:40;4.38;;;2.81;;
71176;SDS011;58877;51.992;4.504;2023-03-26T19:58:10;4.53;;;2.85;;
71176;SDS011;58877;51.992;4.504;2023-03-26T20:00:36;4.55;;;2.86;;
71176;SDS011;58877;51.992;4.504;2023-03-26T20:03:02;3.71;;;2.34;;
71176;SDS011;58877;51.992;4.504;2023-03-26T20:05:29;3.48;;;2.19;;
71176;SDS011;58877;51.992;4.504;2023-03-26T20:07:59;4.02;;;2.55;;
71176;SDS011;58877;51.992;4.504;2023-03-26T20:10:28;4.59;;;2.92;;
71176;SDS011;58877;51.992;4.504;2023-03-26T20:12:54;3.97;;;2.51;;
71176;SDS011;58877;51.992;4.504;2023-03-26T20:15:21;4.26;;;2.69;;
71176;SDS011;58877;51.992;4.504;2023-03-26T20:17:49;4.51;;;2.82;;
71176;SDS011;58877;51.992;4.504;2023-03-26T20:20:23;4.92;;;3.04;;
71176;SDS011;58877;51.992;4.504;2023-03-26T20:22:50;5.07;;;3.09;;
71176;SDS011;58877;51.992;4.504;2023-03-26T20:27:56;6.62;;;3.98;;
71176;SDS011;58877;51.992;4.504;2023-03-26T20:30:22;4.47;;;2.68;;
71176;SDS011;58877;51.992;4.504;2023-03-26T20:32:48;4.98;;;2.97;;
71176;SDS011;58877;51.992;4.504;2023-03-26T20:35:22;4.09;;;2.42;;
71176;SDS011;58877;51.992;4.504;2023-03-26T20:37:49;4.55;;;2.71;;
71176;SDS011;58877;51.992;4.504;2023-03-26T20:40:16;5.33;;;3.23;;
71176;SDS011;58877;51.992;4.504;2023-03-26T20:42:43;4.53;;;2.80;;
71176;SDS011;58877;51.992;4.504;2023-03-26T20:45:19;4.65;;;2.93;;
71176;SDS011;58877;51.992;4.504;2023-03-26T20:47:47;3.73;;;2.37;;
71176;SDS011;58877;51.992;4.504;2023-03-26T20:50:15;3.97;;;2.54;;
71176;SDS011;58877;51.992;4.504;2023-03-26T20:52:42;5.28;;;3.30;;
71176;SDS011;58877;51.992;4.504;2023-03-26T20:55:10;5.02;;;3.21;;
71176;SDS011;58877;51.992;4.504;2023-03-26T20:57:38;3.86;;;2.51;;
71176;SDS011;58877;51.992;4.504;2023-03-26T21:00:04;3.82;;;2.49;;
71176;SDS011;58877;51.992;4.504;2023-03-26T21:02:40;3.50;;;2.26;;
71176;SDS011;58877;51.992;4.504;2023-03-26T21:05:07;3.95;;;2.51;;
71176;SDS011;58877;51.992;4.504;2023-03-26T21:07:40;4.25;;;2.72;;
71176;SDS011;58877;51.992;4.504;2023-03-26T21:10:09;4.16;;;2.64;;
71176;SDS011;58877;51.992;4.504;2023-03-26T21:12:38;4.21;;;2.61;;
71176;SDS011;58877;51.992;4.504;2023-03-26T21:15:11;4.50;;;2.80;;
71176;SDS011;58877;51.992;4.504;2023-03-26T21:17:37;3.28;;;2.06;;
71176;SDS011;58877;51.992;4.504;2023-03-26T21:20:03;4.01;;;2.52;;
71176;SDS011;58877;51.992;4.504;2023-03-26T21:28:06;4.38;;;2.86;;
71176;SDS011;58877;51.992;4.504;2023-03-26T21:30:37;4.03;;;2.61;;
71176;SDS011;58877;51.992;4.504;2023-03-26T21:33:03;3.13;;;2.03;;
71176;SDS011;58877;51.992;4.504;2023-03-26T21:35:30;4.06;;;2.65;;
71176;SDS011;58877;51.992;4.504;2023-03-26T21:37:58;2.18;;;1.41;;
71176;SDS011;58877;51.992;4.504;2023-03-26T21:40:25;2.12;;;1.39;;
71176;SDS011;58877;51.992;4.504;2023-03-26T21:42:52;2.95;;;1.92;;
71176;SDS011;58877;51.992;4.504;2023-03-26T21:45:19;2.94;;;1.93;;
71176;SDS011;58877;51.992;4.504;2023-03-26T21:47:46;2.90;;;1.91;;
71176;SDS011;58877;51.992;4.504;2023-03-26T21:50:13;2.57;;;1.68;;
71176;SDS011;58877;51.992;4.504;2023-03-26T21:52:41;2.95;;;1.94;;
71176;SDS011;58877;51.992;4.504;2023-03-26T21:55:20;3.22;;;2.11;;
71176;SDS011;58877;51.992;4.504;2023-03-26T22:00:46;3.03;;;1.96;;
71176;SDS011;58877;51.992;4.504;2023-03-26T22:09:13;2.71;;;1.77;;
71176;SDS011;58877;51.992;4.504;2023-03-26T22:11:45;2.82;;;1.83;;